sensor_id;sensor_type;location;lat;lon;timestamp;P1;durP1;ratioP1;P2;durP2;ratioP2
67889;SDS011;54685;52.082;5.426;2022-07-21T00:00:26;11.55;;;10.25;;
67889;SDS011;54685;52.082;5.426;2022-07-21T00:02:54;11.07;;;9.98;;
67889;SDS011;54685;52.082;5.426;2022-07-21T00:05:22;12.20;;;9.27;;
67889;SDS011;54685;52.082;5.426;2022-07-21T00:07:50;11.73;;;10.30;;
67889;SDS011;54685;52.082;5.426;2022-07-21T00:10:18;11.35;;;10.15;;
67889;SDS011;54685;52.082;5.426;2022-07-21T00:12:46;10.23;;;9.18;;
67889;SDS011;54685;52.082;5.426;2022-07-21T00:15:14;11.15;;;9.30;;
67889;SDS011;54685;52.082;5.426;2022-07-21T00:17:43;9.35;;;8.32;;
67889;SDS011;54685;52.082;5.426;2022-07-21T00:20:10;10.13;;;8.98;;
67889;SDS011;54685;52.082;5.426;2022-07-21T00:22:39;8.82;;;7.93;;
67889;SDS011;54685;52.082;5.426;2022-07-21T00:25:06;8.27;;;7.18;;
67889;SDS011;54685;52.082;5.426;2022-07-21T00:27:33;8.38;;;7.57;;
67889;SDS011;54685;52.082;5.426;2022-07-21T00:30:00;7.22;;;6.43;;
67889;SDS011;54685;52.082;5.426;2022-07-21T00:32:28;6.97;;;6.13;;
67889;SDS011;54685;52.082;5.426;2022-07-21T00:35:01;6.43;;;5.82;;
67889;SDS011;54685;52.082;5.426;2022-07-21T00:37:30;6.93;;;6.30;;
67889;SDS011;54685;52.082;5.426;2022-07-21T00:39:56;7.63;;;6.80;;
67889;SDS011;54685;52.082;5.426;2022-07-21T00:42:24;6.50;;;5.90;;
67889;SDS011;54685;52.082;5.426;2022-07-21T00:44:52;8.13;;;6.25;;
67889;SDS011;54685;52.082;5.426;2022-07-21T00:47:20;8.82;;;6.30;;
67889;SDS011;54685;52.082;5.426;2022-07-21T00:49:48;6.53;;;5.85;;
67889;SDS011;54685;52.082;5.426;2022-07-21T00:52:15;6.93;;;6.22;;
67889;SDS011;54685;52.082;5.426;2022-07-21T00:54:43;6.90;;;6.10;;
67889;SDS011;54685;52.082;5.426;2022-07-21T00:57:10;8.15;;;6.80;;
67889;SDS011;54685;52.082;5.426;2022-07-21T00:59:38;9.18;;;6.05;;
67889;SDS011;54685;52.082;5.426;2022-07-21T01:02:05;7.32;;;6.63;;
67889;SDS011;54685;52.082;5.426;2022-07-21T01:04:32;7.25;;;6.40;;
67889;SDS011;54685;52.082;5.426;2022-07-21T01:07:02;6.82;;;6.13;;
67889;SDS011;54685;52.082;5.426;2022-07-21T01:09:31;7.27;;;6.30;;
67889;SDS011;54685;52.082;5.426;2022-07-21T01:11:58;7.40;;;6.68;;
67889;SDS011;54685;52.082;5.426;2022-07-21T01:14:26;7.53;;;5.97;;
67889;SDS011;54685;52.082;5.426;2022-07-21T01:16:54;7.13;;;6.50;;
67889;SDS011;54685;52.082;5.426;2022-07-21T01:19:21;7.88;;;6.00;;
67889;SDS011;54685;52.082;5.426;2022-07-21T01:21:48;7.57;;;6.88;;
67889;SDS011;54685;52.082;5.426;2022-07-21T01:24:16;6.72;;;6.13;;
67889;SDS011;54685;52.082;5.426;2022-07-21T01:26:44;10.13;;;6.70;;
67889;SDS011;54685;52.082;5.426;2022-07-21T01:29:12;8.13;;;7.22;;
67889;SDS011;54685;52.082;5.426;2022-07-21T01:31:40;7.82;;;7.03;;
67889;SDS011;54685;52.082;5.426;2022-07-21T01:34:09;7.18;;;6.03;;
67889;SDS011;54685;52.082;5.426;2022-07-21T01:36:36;7.00;;;6.30;;
67889;SDS011;54685;52.082;5.426;2022-07-21T01:39:04;7.03;;;6.32;;
67889;SDS011;54685;52.082;5.426;2022-07-21T01:41:50;7.07;;;6.35;;
67889;SDS011;54685;52.082;5.426;2022-07-21T01:44:17;7.03;;;6.30;;
67889;SDS011;54685;52.082;5.426;2022-07-21T01:46:46;7.97;;;6.93;;
67889;SDS011;54685;52.082;5.426;2022-07-21T01:49:15;7.70;;;6.88;;
67889;SDS011;54685;52.082;5.426;2022-07-21T01:51:43;8.43;;;7.70;;
67889;SDS011;54685;52.082;5.426;2022-07-21T01:54:11;8.60;;;7.68;;
67889;SDS011;54685;52.082;5.426;2022-07-21T01:56:38;10.70;;;9.70;;
67889;SDS011;54685;52.082;5.426;2022-07-21T01:59:06;9.18;;;8.30;;
67889;SDS011;54685;52.082;5.426;2022-07-21T02:01:33;12.13;;;9.68;;
67889;SDS011;54685;52.082;5.426;2022-07-21T02:04:03;11.05;;;9.18;;
67889;SDS011;54685;52.082;5.426;2022-07-21T02:06:31;11.07;;;9.60;;
67889;SDS011;54685;52.082;5.426;2022-07-21T02:08:59;11.40;;;10.02;;
67889;SDS011;54685;52.082;5.426;2022-07-21T02:11:25;10.85;;;9.75;;
67889;SDS011;54685;52.082;5.426;2022-07-21T02:13:53;12.02;;;10.80;;
67889;SDS011;54685;52.082;5.426;2022-07-21T02:16:20;12.10;;;10.82;;
67889;SDS011;54685;52.082;5.426;2022-07-21T02:18:47;12.30;;;10.68;;
67889;SDS011;54685;52.082;5.426;2022-07-21T02:21:15;12.35;;;10.85;;
67889;SDS011;54685;52.082;5.426;2022-07-21T02:23:42;11.25;;;10.15;;
67889;SDS011;54685;52.082;5.426;2022-07-21T02:26:08;12.43;;;11.32;;
67889;SDS011;54685;52.082;5.426;2022-07-21T02:28:35;12.55;;;11.20;;
67889;SDS011;54685;52.082;5.426;2022-07-21T02:31:02;12.25;;;11.05;;
67889;SDS011;54685;52.082;5.426;2022-07-21T02:33:29;14.05;;;12.10;;
67889;SDS011;54685;52.082;5.426;2022-07-21T02:35:56;11.85;;;10.65;;
67889;SDS011;54685;52.082;5.426;2022-07-21T02:38:23;12.82;;;11.35;;
67889;SDS011;54685;52.082;5.426;2022-07-21T02:40:50;12.23;;;10.98;;
67889;SDS011;54685;52.082;5.426;2022-07-21T02:43:22;12.77;;;11.45;;
67889;SDS011;54685;52.082;5.426;2022-07-21T02:45:50;12.52;;;10.13;;
67889;SDS011;54685;52.082;5.426;2022-07-21T02:48:17;12.57;;;10.38;;
67889;SDS011;54685;52.082;5.426;2022-07-21T02:50:45;12.20;;;10.98;;
67889;SDS011;54685;52.082;5.426;2022-07-21T02:53:13;12.73;;;11.52;;
67889;SDS011;54685;52.082;5.426;2022-07-21T02:55:44;11.40;;;10.27;;
67889;SDS011;54685;52.082;5.426;2022-07-21T02:58:16;12.32;;;11.02;;
67889;SDS011;54685;52.082;5.426;2022-07-21T03:00:54;16.88;;;13.10;;
67889;SDS011;54685;52.082;5.426;2022-07-21T03:03:28;13.02;;;11.70;;
67889;SDS011;54685;52.082;5.426;2022-07-21T03:05:56;13.68;;;12.25;;
67889;SDS011;54685;52.082;5.426;2022-07-21T03:08:24;13.57;;;12.15;;
67889;SDS011;54685;52.082;5.426;2022-07-21T03:10:51;14.57;;;13.07;;
67889;SDS011;54685;52.082;5.426;2022-07-21T03:13:18;13.95;;;12.40;;
67889;SDS011;54685;52.082;5.426;2022-07-21T03:15:45;17.08;;;13.98;;
67889;SDS011;54685;52.082;5.426;2022-07-21T03:18:12;14.52;;;12.75;;
67889;SDS011;54685;52.082;5.426;2022-07-21T03:20:39;14.40;;;12.90;;
67889;SDS011;54685;52.082;5.426;2022-07-21T03:23:09;13.80;;;12.40;;
67889;SDS011;54685;52.082;5.426;2022-07-21T03:25:36;13.43;;;12.10;;
67889;SDS011;54685;52.082;5.426;2022-07-21T03:28:04;14.70;;;13.13;;
67889;SDS011;54685;52.082;5.426;2022-07-21T03:30:31;15.98;;;14.25;;
67889;SDS011;54685;52.082;5.426;2022-07-21T03:32:58;15.57;;;14.07;;
67889;SDS011;54685;52.082;5.426;2022-07-21T03:35:25;17.10;;;15.43;;
67889;SDS011;54685;52.082;5.426;2022-07-21T03:37:56;17.77;;;14.32;;
67889;SDS011;54685;52.082;5.426;2022-07-21T03:40:25;17.02;;;15.35;;
67889;SDS011;54685;52.082;5.426;2022-07-21T03:42:54;20.40;;;15.30;;
67889;SDS011;54685;52.082;5.426;2022-07-21T03:45:22;14.85;;;13.45;;
67889;SDS011;54685;52.082;5.426;2022-07-21T03:47:51;18.38;;;15.32;;
67889;SDS011;54685;52.082;5.426;2022-07-21T03:50:18;16.13;;;14.38;;
67889;SDS011;54685;52.082;5.426;2022-07-21T03:52:45;15.60;;;14.00;;
67889;SDS011;54685;52.082;5.426;2022-07-21T03:55:13;16.48;;;14.77;;
67889;SDS011;54685;52.082;5.426;2022-07-21T03:57:49;17.70;;;15.80;;
67889;SDS011;54685;52.082;5.426;2022-07-21T04:00:17;16.65;;;14.93;;
67889;SDS011;54685;52.082;5.426;2022-07-21T04:02:59;18.92;;;16.92;;
67889;SDS011;54685;52.082;5.426;2022-07-21T04:05:26;20.40;;;16.55;;
67889;SDS011;54685;52.082;5.426;2022-07-21T04:07:54;19.52;;;17.20;;
67889;SDS011;54685;52.082;5.426;2022-07-21T04:10:22;19.48;;;17.42;;
67889;SDS011;54685;52.082;5.426;2022-07-21T04:12:51;18.35;;;16.42;;
67889;SDS011;54685;52.082;5.426;2022-07-21T04:15:19;20.85;;;17.10;;
67889;SDS011;54685;52.082;5.426;2022-07-21T04:17:47;17.98;;;16.08;;
67889;SDS011;54685;52.082;5.426;2022-07-21T04:20:15;21.92;;;17.65;;
67889;SDS011;54685;52.082;5.426;2022-07-21T04:22:43;20.65;;;18.05;;
67889;SDS011;54685;52.082;5.426;2022-07-21T04:25:12;20.60;;;18.48;;
67889;SDS011;54685;52.082;5.426;2022-07-21T04:27:40;22.05;;;17.95;;
67889;SDS011;54685;52.082;5.426;2022-07-21T04:30:08;23.63;;;18.52;;
67889;SDS011;54685;52.082;5.426;2022-07-21T04:32:37;19.40;;;17.42;;
67889;SDS011;54685;52.082;5.426;2022-07-21T04:35:04;17.90;;;15.90;;
67889;SDS011;54685;52.082;5.426;2022-07-21T04:37:32;18.52;;;16.52;;
67889;SDS011;54685;52.082;5.426;2022-07-21T04:39:59;20.90;;;17.33;;
67889;SDS011;54685;52.082;5.426;2022-07-21T04:42:25;19.98;;;17.95;;
67889;SDS011;54685;52.082;5.426;2022-07-21T04:44:52;19.15;;;17.15;;
67889;SDS011;54685;52.082;5.426;2022-07-21T04:47:19;22.98;;;19.73;;
67889;SDS011;54685;52.082;5.426;2022-07-21T04:49:46;23.95;;;18.98;;
67889;SDS011;54685;52.082;5.426;2022-07-21T04:52:13;19.40;;;17.38;;
67889;SDS011;54685;52.082;5.426;2022-07-21T04:54:40;19.48;;;17.42;;
67889;SDS011;54685;52.082;5.426;2022-07-21T04:57:07;22.52;;;18.73;;
67889;SDS011;54685;52.082;5.426;2022-07-21T04:59:34;22.50;;;18.58;;
67889;SDS011;54685;52.082;5.426;2022-07-21T05:02:02;23.05;;;18.25;;
67889;SDS011;54685;52.082;5.426;2022-07-21T05:04:30;21.15;;;18.98;;
67889;SDS011;54685;52.082;5.426;2022-07-21T05:06:57;24.63;;;20.85;;
67889;SDS011;54685;52.082;5.426;2022-07-21T05:09:24;22.73;;;20.30;;
67889;SDS011;54685;52.082;5.426;2022-07-21T05:11:51;21.95;;;19.17;;
67889;SDS011;54685;52.082;5.426;2022-07-21T05:14:20;24.40;;;20.85;;
67889;SDS011;54685;52.082;5.426;2022-07-21T05:16:47;24.80;;;21.13;;
67889;SDS011;54685;52.082;5.426;2022-07-21T05:19:14;26.17;;;21.65;;
67889;SDS011;54685;52.082;5.426;2022-07-21T05:21:40;25.38;;;21.58;;
67889;SDS011;54685;52.082;5.426;2022-07-21T05:24:07;26.83;;;23.13;;
67889;SDS011;54685;52.082;5.426;2022-07-21T05:26:35;26.15;;;21.02;;
67889;SDS011;54685;52.082;5.426;2022-07-21T05:29:02;25.75;;;22.48;;
67889;SDS011;54685;52.082;5.426;2022-07-21T05:31:29;27.13;;;24.23;;
67889;SDS011;54685;52.082;5.426;2022-07-21T05:33:56;29.83;;;24.60;;
67889;SDS011;54685;52.082;5.426;2022-07-21T05:36:22;25.80;;;23.00;;
67889;SDS011;54685;52.082;5.426;2022-07-21T05:38:49;29.33;;;26.08;;
67889;SDS011;54685;52.082;5.426;2022-07-21T05:41:17;31.05;;;25.35;;
67889;SDS011;54685;52.082;5.426;2022-07-21T05:43:43;28.13;;;25.23;;
67889;SDS011;54685;52.082;5.426;2022-07-21T05:46:10;28.48;;;24.58;;
67889;SDS011;54685;52.082;5.426;2022-07-21T05:48:37;27.33;;;22.55;;
67889;SDS011;54685;52.082;5.426;2022-07-21T05:51:04;25.50;;;21.00;;
67889;SDS011;54685;52.082;5.426;2022-07-21T05:53:30;25.40;;;22.42;;
67889;SDS011;54685;52.082;5.426;2022-07-21T05:55:57;24.58;;;21.58;;
67889;SDS011;54685;52.082;5.426;2022-07-21T05:58:24;24.70;;;20.55;;
67889;SDS011;54685;52.082;5.426;2022-07-21T06:00:51;25.05;;;20.08;;
67889;SDS011;54685;52.082;5.426;2022-07-21T06:03:38;27.13;;;20.92;;
67889;SDS011;54685;52.082;5.426;2022-07-21T06:06:07;21.20;;;18.98;;
67889;SDS011;54685;52.082;5.426;2022-07-21T06:08:36;21.67;;;19.02;;
67889;SDS011;54685;52.082;5.426;2022-07-21T06:11:04;24.55;;;18.83;;
67889;SDS011;54685;52.082;5.426;2022-07-21T06:13:31;24.15;;;19.27;;
67889;SDS011;54685;52.082;5.426;2022-07-21T06:15:58;22.08;;;18.83;;
67889;SDS011;54685;52.082;5.426;2022-07-21T06:18:25;21.55;;;18.05;;
67889;SDS011;54685;52.082;5.426;2022-07-21T06:20:52;24.45;;;19.25;;
67889;SDS011;54685;52.082;5.426;2022-07-21T06:23:19;20.70;;;17.25;;
67889;SDS011;54685;52.082;5.426;2022-07-21T06:25:46;24.35;;;18.42;;
67889;SDS011;54685;52.082;5.426;2022-07-21T06:28:13;24.77;;;18.15;;
67889;SDS011;54685;52.082;5.426;2022-07-21T06:30:39;23.17;;;19.30;;
67889;SDS011;54685;52.082;5.426;2022-07-21T06:33:06;26.42;;;18.70;;
67889;SDS011;54685;52.082;5.426;2022-07-21T06:35:33;26.23;;;19.10;;
67889;SDS011;54685;52.082;5.426;2022-07-21T06:38:00;28.98;;;18.83;;
67889;SDS011;54685;52.082;5.426;2022-07-21T06:40:27;23.63;;;18.80;;
67889;SDS011;54685;52.082;5.426;2022-07-21T06:42:54;23.95;;;19.85;;
67889;SDS011;54685;52.082;5.426;2022-07-21T06:45:41;25.83;;;19.20;;
67889;SDS011;54685;52.082;5.426;2022-07-21T06:48:09;24.73;;;18.20;;
67889;SDS011;54685;52.082;5.426;2022-07-21T06:50:36;31.20;;;20.70;;
67889;SDS011;54685;52.082;5.426;2022-07-21T06:53:03;26.80;;;21.30;;
67889;SDS011;54685;52.082;5.426;2022-07-21T06:55:31;30.88;;;20.35;;
67889;SDS011;54685;52.082;5.426;2022-07-21T06:58:00;29.00;;;21.38;;
67889;SDS011;54685;52.082;5.426;2022-07-21T07:00:44;31.58;;;22.20;;
67889;SDS011;54685;52.082;5.426;2022-07-21T07:03:12;31.23;;;22.63;;
67889;SDS011;54685;52.082;5.426;2022-07-21T07:05:40;28.92;;;21.15;;
67889;SDS011;54685;52.082;5.426;2022-07-21T07:08:08;29.50;;;21.63;;
67889;SDS011;54685;52.082;5.426;2022-07-21T07:10:38;32.55;;;22.88;;
67889;SDS011;54685;52.082;5.426;2022-07-21T07:13:05;29.25;;;22.63;;
67889;SDS011;54685;52.082;5.426;2022-07-21T07:15:53;32.50;;;23.15;;
67889;SDS011;54685;52.082;5.426;2022-07-21T07:18:19;35.92;;;23.90;;
67889;SDS011;54685;52.082;5.426;2022-07-21T07:20:48;33.88;;;25.13;;
67889;SDS011;54685;52.082;5.426;2022-07-21T07:23:14;33.28;;;24.95;;
67889;SDS011;54685;52.082;5.426;2022-07-21T07:25:44;36.38;;;25.45;;
67889;SDS011;54685;52.082;5.426;2022-07-21T07:28:11;40.50;;;26.90;;
67889;SDS011;54685;52.082;5.426;2022-07-21T07:30:37;33.42;;;26.58;;
67889;SDS011;54685;52.082;5.426;2022-07-21T07:33:05;38.13;;;26.98;;
67889;SDS011;54685;52.082;5.426;2022-07-21T07:35:32;38.97;;;27.88;;
67889;SDS011;54685;52.082;5.426;2022-07-21T07:37:58;37.47;;;27.00;;
67889;SDS011;54685;52.082;5.426;2022-07-21T07:40:26;40.22;;;28.73;;
67889;SDS011;54685;52.082;5.426;2022-07-21T07:42:53;42.00;;;28.08;;
67889;SDS011;54685;52.082;5.426;2022-07-21T07:45:20;46.30;;;31.85;;
67889;SDS011;54685;52.082;5.426;2022-07-21T07:47:47;52.42;;;31.85;;
67889;SDS011;54685;52.082;5.426;2022-07-21T07:50:14;48.90;;;33.50;;
67889;SDS011;54685;52.082;5.426;2022-07-21T07:52:42;51.47;;;32.83;;
67889;SDS011;54685;52.082;5.426;2022-07-21T07:55:10;52.83;;;34.28;;
67889;SDS011;54685;52.082;5.426;2022-07-21T07:57:38;45.35;;;30.75;;
67889;SDS011;54685;52.082;5.426;2022-07-21T08:00:07;48.17;;;32.38;;
67889;SDS011;54685;52.082;5.426;2022-07-21T08:02:59;53.30;;;33.72;;
67889;SDS011;54685;52.082;5.426;2022-07-21T08:05:26;52.35;;;31.70;;
67889;SDS011;54685;52.082;5.426;2022-07-21T08:07:53;50.05;;;33.00;;
67889;SDS011;54685;52.082;5.426;2022-07-21T08:10:20;53.38;;;33.70;;
67889;SDS011;54685;52.082;5.426;2022-07-21T08:13:06;42.55;;;31.15;;
67889;SDS011;54685;52.082;5.426;2022-07-21T08:15:35;48.60;;;33.42;;
67889;SDS011;54685;52.082;5.426;2022-07-21T08:18:03;42.50;;;29.70;;
67889;SDS011;54685;52.082;5.426;2022-07-21T08:20:30;52.50;;;33.30;;
67889;SDS011;54685;52.082;5.426;2022-07-21T08:22:57;46.97;;;32.33;;
67889;SDS011;54685;52.082;5.426;2022-07-21T08:25:24;46.72;;;33.15;;
67889;SDS011;54685;52.082;5.426;2022-07-21T08:27:51;49.13;;;34.42;;
67889;SDS011;54685;52.082;5.426;2022-07-21T08:30:18;49.60;;;33.22;;
67889;SDS011;54685;52.082;5.426;2022-07-21T08:32:49;51.15;;;35.75;;
67889;SDS011;54685;52.082;5.426;2022-07-21T08:35:16;53.78;;;36.33;;
67889;SDS011;54685;52.082;5.426;2022-07-21T08:37:51;52.35;;;35.95;;
67889;SDS011;54685;52.082;5.426;2022-07-21T08:40:22;54.22;;;34.47;;
67889;SDS011;54685;52.082;5.426;2022-07-21T08:42:51;51.95;;;34.65;;
67889;SDS011;54685;52.082;5.426;2022-07-21T08:45:19;50.30;;;33.65;;
67889;SDS011;54685;52.082;5.426;2022-07-21T08:47:46;49.92;;;34.10;;
67889;SDS011;54685;52.082;5.426;2022-07-21T08:50:31;54.58;;;35.05;;
67889;SDS011;54685;52.082;5.426;2022-07-21T08:52:59;54.20;;;34.92;;
67889;SDS011;54685;52.082;5.426;2022-07-21T08:55:30;54.30;;;35.13;;
67889;SDS011;54685;52.082;5.426;2022-07-21T08:57:58;51.25;;;34.05;;
67889;SDS011;54685;52.082;5.426;2022-07-21T09:00:26;54.35;;;34.95;;
67889;SDS011;54685;52.082;5.426;2022-07-21T09:08:41;50.08;;;33.15;;
67889;SDS011;54685;52.082;5.426;2022-07-21T09:11:17;59.95;;;36.72;;
67889;SDS011;54685;52.082;5.426;2022-07-21T09:13:49;59.88;;;36.63;;
67889;SDS011;54685;52.082;5.426;2022-07-21T09:16:35;57.13;;;36.88;;
67889;SDS011;54685;52.082;5.426;2022-07-21T09:19:06;57.35;;;35.38;;
67889;SDS011;54685;52.082;5.426;2022-07-21T09:21:42;56.38;;;36.63;;
67889;SDS011;54685;52.082;5.426;2022-07-21T09:24:13;58.50;;;34.92;;
67889;SDS011;54685;52.082;5.426;2022-07-21T09:27:00;40.75;;;28.05;;
67889;SDS011;54685;52.082;5.426;2022-07-21T09:29:46;45.38;;;29.30;;
67889;SDS011;54685;52.082;5.426;2022-07-21T09:32:18;36.95;;;26.27;;
67889;SDS011;54685;52.082;5.426;2022-07-21T09:35:05;23.65;;;18.65;;
67889;SDS011;54685;52.082;5.426;2022-07-21T09:37:38;20.48;;;15.77;;
67889;SDS011;54685;52.082;5.426;2022-07-21T09:40:07;16.88;;;14.10;;
67889;SDS011;54685;52.082;5.426;2022-07-21T09:42:36;18.27;;;13.70;;
67889;SDS011;54685;52.082;5.426;2022-07-21T09:45:05;18.10;;;14.60;;
67889;SDS011;54685;52.082;5.426;2022-07-21T09:47:36;17.42;;;12.95;;
67889;SDS011;54685;52.082;5.426;2022-07-21T09:50:10;15.82;;;12.98;;
67889;SDS011;54685;52.082;5.426;2022-07-21T09:52:52;14.68;;;11.38;;
67889;SDS011;54685;52.082;5.426;2022-07-21T09:55:20;12.80;;;10.00;;
67889;SDS011;54685;52.082;5.426;2022-07-21T09:57:48;11.70;;;8.60;;
67889;SDS011;54685;52.082;5.426;2022-07-21T10:00:19;10.57;;;8.68;;
67889;SDS011;54685;52.082;5.426;2022-07-21T10:02:47;10.50;;;8.47;;
67889;SDS011;54685;52.082;5.426;2022-07-21T10:05:16;15.25;;;8.75;;
67889;SDS011;54685;52.082;5.426;2022-07-21T10:07:46;10.57;;;7.28;;
67889;SDS011;54685;52.082;5.426;2022-07-21T10:10:15;6.88;;;6.13;;
67889;SDS011;54685;52.082;5.426;2022-07-21T10:12:47;10.15;;;6.97;;
67889;SDS011;54685;52.082;5.426;2022-07-21T10:15:16;6.85;;;6.15;;
67889;SDS011;54685;52.082;5.426;2022-07-21T10:17:43;7.32;;;6.55;;
67889;SDS011;54685;52.082;5.426;2022-07-21T10:20:24;5.75;;;5.15;;
67889;SDS011;54685;52.082;5.426;2022-07-21T10:23:12;8.95;;;6.53;;
67889;SDS011;54685;52.082;5.426;2022-07-21T10:25:45;7.90;;;6.80;;
67889;SDS011;54685;52.082;5.426;2022-07-21T10:28:13;7.38;;;6.22;;
67889;SDS011;54685;52.082;5.426;2022-07-21T10:30:41;6.22;;;5.63;;
67889;SDS011;54685;52.082;5.426;2022-07-21T10:33:10;7.25;;;6.55;;
67889;SDS011;54685;52.082;5.426;2022-07-21T10:35:42;7.25;;;6.28;;
67889;SDS011;54685;52.082;5.426;2022-07-21T10:38:29;7.47;;;6.45;;
67889;SDS011;54685;52.082;5.426;2022-07-21T10:40:58;7.47;;;6.75;;
67889;SDS011;54685;52.082;5.426;2022-07-21T10:45:55;7.65;;;6.28;;
67889;SDS011;54685;52.082;5.426;2022-07-21T10:53:34;8.18;;;6.93;;
67889;SDS011;54685;52.082;5.426;2022-07-21T10:56:02;11.95;;;7.07;;
67889;SDS011;54685;52.082;5.426;2022-07-21T10:58:33;6.80;;;5.75;;
67889;SDS011;54685;52.082;5.426;2022-07-21T11:01:06;7.57;;;6.15;;
67889;SDS011;54685;52.082;5.426;2022-07-21T11:03:51;6.35;;;5.60;;
67889;SDS011;54685;52.082;5.426;2022-07-21T11:06:37;10.02;;;6.82;;
67889;SDS011;54685;52.082;5.426;2022-07-21T11:09:06;9.38;;;7.53;;
67889;SDS011;54685;52.082;5.426;2022-07-21T11:11:34;7.05;;;6.18;;
67889;SDS011;54685;52.082;5.426;2022-07-21T11:25:05;9.50;;;6.90;;
67889;SDS011;54685;52.082;5.426;2022-07-21T11:27:34;7.05;;;6.32;;
67889;SDS011;54685;52.082;5.426;2022-07-21T11:30:05;9.25;;;6.80;;
67889;SDS011;54685;52.082;5.426;2022-07-21T11:32:34;10.48;;;6.53;;
67889;SDS011;54685;52.082;5.426;2022-07-21T11:35:02;10.23;;;6.15;;
67889;SDS011;54685;52.082;5.426;2022-07-21T11:37:32;10.80;;;7.00;;
67889;SDS011;54685;52.082;5.426;2022-07-21T11:40:05;8.02;;;6.43;;
67889;SDS011;54685;52.082;5.426;2022-07-21T11:42:43;7.80;;;5.65;;
67889;SDS011;54685;52.082;5.426;2022-07-21T11:45:12;6.65;;;5.38;;
67889;SDS011;54685;52.082;5.426;2022-07-21T11:47:40;5.95;;;4.90;;
67889;SDS011;54685;52.082;5.426;2022-07-21T11:50:16;6.63;;;5.78;;
67889;SDS011;54685;52.082;5.426;2022-07-21T11:52:44;7.07;;;6.25;;
67889;SDS011;54685;52.082;5.426;2022-07-21T11:55:11;8.40;;;6.45;;
67889;SDS011;54685;52.082;5.426;2022-07-21T11:57:45;6.40;;;5.80;;
67889;SDS011;54685;52.082;5.426;2022-07-21T12:00:14;12.73;;;6.68;;
67889;SDS011;54685;52.082;5.426;2022-07-21T12:02:46;11.60;;;8.52;;
67889;SDS011;54685;52.082;5.426;2022-07-21T12:05:15;8.32;;;6.38;;
67889;SDS011;54685;52.082;5.426;2022-07-21T12:07:43;7.68;;;6.50;;
67889;SDS011;54685;52.082;5.426;2022-07-21T12:10:14;11.30;;;7.53;;
67889;SDS011;54685;52.082;5.426;2022-07-21T12:12:49;10.55;;;7.93;;
67889;SDS011;54685;52.082;5.426;2022-07-21T12:15:20;14.15;;;8.32;;
67889;SDS011;54685;52.082;5.426;2022-07-21T12:17:58;9.43;;;6.90;;
67889;SDS011;54685;52.082;5.426;2022-07-21T12:20:34;8.38;;;6.30;;
67889;SDS011;54685;52.082;5.426;2022-07-21T12:23:20;11.48;;;7.28;;
67889;SDS011;54685;52.082;5.426;2022-07-21T12:26:05;7.85;;;6.13;;
67889;SDS011;54685;52.082;5.426;2022-07-21T12:28:45;6.75;;;5.43;;
67889;SDS011;54685;52.082;5.426;2022-07-21T12:31:19;6.78;;;5.43;;
67889;SDS011;54685;52.082;5.426;2022-07-21T12:33:48;5.85;;;5.35;;
67889;SDS011;54685;52.082;5.426;2022-07-21T12:36:40;6.10;;;5.47;;
67889;SDS011;54685;52.082;5.426;2022-07-21T12:39:19;7.80;;;6.35;;
67889;SDS011;54685;52.082;5.426;2022-07-21T12:42:10;6.75;;;5.97;;
67889;SDS011;54685;52.082;5.426;2022-07-21T12:44:38;8.98;;;6.25;;
67889;SDS011;54685;52.082;5.426;2022-07-21T12:47:13;8.80;;;7.25;;
67889;SDS011;54685;52.082;5.426;2022-07-21T12:49:53;8.00;;;7.20;;
67889;SDS011;54685;52.082;5.426;2022-07-21T12:52:48;7.95;;;5.88;;
67889;SDS011;54685;52.082;5.426;2022-07-21T12:55:15;7.28;;;5.70;;
67889;SDS011;54685;52.082;5.426;2022-07-21T12:57:42;5.75;;;5.10;;
67889;SDS011;54685;52.082;5.426;2022-07-21T13:00:08;6.60;;;5.38;;
67889;SDS011;54685;52.082;5.426;2022-07-21T13:02:49;7.60;;;4.97;;
67889;SDS011;54685;52.082;5.426;2022-07-21T13:05:17;7.25;;;4.60;;
67889;SDS011;54685;52.082;5.426;2022-07-21T13:07:44;7.22;;;4.80;;
67889;SDS011;54685;52.082;5.426;2022-07-21T13:10:12;6.68;;;4.30;;
67889;SDS011;54685;52.082;5.426;2022-07-21T13:12:39;6.57;;;4.57;;
67889;SDS011;54685;52.082;5.426;2022-07-21T13:15:06;4.80;;;4.30;;
67889;SDS011;54685;52.082;5.426;2022-07-21T13:17:33;4.65;;;4.07;;
67889;SDS011;54685;52.082;5.426;2022-07-21T13:20:00;5.93;;;4.45;;
67889;SDS011;54685;52.082;5.426;2022-07-21T13:22:33;4.35;;;3.65;;
67889;SDS011;54685;52.082;5.426;2022-07-21T13:25:00;4.07;;;3.40;;
67889;SDS011;54685;52.082;5.426;2022-07-21T13:27:27;4.20;;;3.28;;
67889;SDS011;54685;52.082;5.426;2022-07-21T13:29:54;5.03;;;3.08;;
67889;SDS011;54685;52.082;5.426;2022-07-21T13:32:21;4.93;;;3.30;;
67889;SDS011;54685;52.082;5.426;2022-07-21T13:34:48;4.15;;;3.28;;
67889;SDS011;54685;52.082;5.426;2022-07-21T13:37:34;4.90;;;3.10;;
67889;SDS011;54685;52.082;5.426;2022-07-21T13:40:02;3.35;;;2.45;;
67889;SDS011;54685;52.082;5.426;2022-07-21T13:42:50;5.30;;;2.53;;
67889;SDS011;54685;52.082;5.426;2022-07-21T13:45:31;4.85;;;2.40;;
67889;SDS011;54685;52.082;5.426;2022-07-21T13:47:58;3.67;;;2.35;;
67889;SDS011;54685;52.082;5.426;2022-07-21T13:50:25;3.50;;;2.55;;
67889;SDS011;54685;52.082;5.426;2022-07-21T13:52:52;4.65;;;2.75;;
67889;SDS011;54685;52.082;5.426;2022-07-21T13:55:19;4.38;;;3.10;;
67889;SDS011;54685;52.082;5.426;2022-07-21T13:57:46;3.97;;;3.00;;
67889;SDS011;54685;52.082;5.426;2022-07-21T14:00:14;5.43;;;3.00;;
67889;SDS011;54685;52.082;5.426;2022-07-21T14:02:41;5.72;;;2.88;;
67889;SDS011;54685;52.082;5.426;2022-07-21T14:05:10;4.53;;;3.05;;
67889;SDS011;54685;52.082;5.426;2022-07-21T14:07:37;5.03;;;2.95;;
67889;SDS011;54685;52.082;5.426;2022-07-21T14:10:05;5.55;;;2.80;;
67889;SDS011;54685;52.082;5.426;2022-07-21T14:12:32;4.57;;;2.30;;
67889;SDS011;54685;52.082;5.426;2022-07-21T14:15:08;3.40;;;2.13;;
67889;SDS011;54685;52.082;5.426;2022-07-21T14:17:35;3.15;;;2.50;;
67889;SDS011;54685;52.082;5.426;2022-07-21T14:20:02;4.35;;;2.25;;
67889;SDS011;54685;52.082;5.426;2022-07-21T14:22:30;4.13;;;2.45;;
67889;SDS011;54685;52.082;5.426;2022-07-21T14:24:56;4.47;;;2.97;;
67889;SDS011;54685;52.082;5.426;2022-07-21T14:27:42;5.15;;;2.78;;
67889;SDS011;54685;52.082;5.426;2022-07-21T14:30:10;4.55;;;2.88;;
67889;SDS011;54685;52.082;5.426;2022-07-21T14:32:37;5.60;;;3.47;;
67889;SDS011;54685;52.082;5.426;2022-07-21T14:35:04;4.85;;;2.70;;
67889;SDS011;54685;52.082;5.426;2022-07-21T14:37:31;9.45;;;3.85;;
67889;SDS011;54685;52.082;5.426;2022-07-21T14:39:59;7.03;;;3.85;;
67889;SDS011;54685;52.082;5.426;2022-07-21T14:42:26;5.07;;;3.33;;
67889;SDS011;54685;52.082;5.426;2022-07-21T14:44:53;5.25;;;3.45;;
67889;SDS011;54685;52.082;5.426;2022-07-21T14:47:21;6.25;;;3.35;;
67889;SDS011;54685;52.082;5.426;2022-07-21T14:49:48;5.93;;;4.45;;
67889;SDS011;54685;52.082;5.426;2022-07-21T14:52:15;6.00;;;3.97;;
67889;SDS011;54685;52.082;5.426;2022-07-21T14:54:42;5.90;;;4.50;;
67889;SDS011;54685;52.082;5.426;2022-07-21T14:57:09;6.13;;;4.45;;
67889;SDS011;54685;52.082;5.426;2022-07-21T14:59:36;5.57;;;4.28;;
67889;SDS011;54685;52.082;5.426;2022-07-21T15:02:03;9.02;;;5.72;;
67889;SDS011;54685;52.082;5.426;2022-07-21T15:04:37;6.00;;;4.57;;
67889;SDS011;54685;52.082;5.426;2022-07-21T15:07:04;6.18;;;4.13;;
67889;SDS011;54685;52.082;5.426;2022-07-21T15:09:31;6.43;;;4.70;;
67889;SDS011;54685;52.082;5.426;2022-07-21T15:11:58;5.00;;;4.45;;